Time;durP1;ratioP1;P1;durP2;ratioP2;P2;SDS_P1;SDS_P2;PMS_P1;PMS_P2;Temp;Humidity;BMP_temperature;BMP_pressure;BME280_temperature;BME280_humidity;BME280_pressure;Samples;Min_cycle;Max_cycle;Signal;HPM_P1;HPM_P2
2022/01/10 00:00:13;;;;;;;2.00;0.90;;;4.00;99.90;;;;;;5116860;27;20515;-61
2022/01/10 00:02:41;;;;;;;1.50;0.90;;;4.00;99.90;;;;;;5158210;27;20524;-61
2022/01/10 00:05:10;;;;;;;2.60;0.85;;;3.90;99.90;;;;;;5159402;27;20476;-62
2022/01/10 00:07:38;;;;;;;1.98;0.90;;;3.90;99.90;;;;;;5159367;27;20507;-62
2022/01/10 00:10:06;;;;;;;1.08;0.80;;;4.00;99.90;;;;;;5159485;27;20417;-62
2022/01/10 00:12:32;;;;;;;1.70;0.80;;;4.00;99.90;;;;;;5159724;27;20941;-61
2022/01/10 00:14:59;;;;;;;2.42;0.80;;;3.90;99.90;;;;;;5160095;27;20782;-62
2022/01/10 00:17:26;;;;;;;1.70;0.70;;;3.90;99.90;;;;;;5159046;27;20793;-62
2022/01/10 00:19:53;;;;;;;2.60;1.20;;;4.00;99.90;;;;;;5158666;27;20824;-62
2022/01/10 00:22:23;;;;;;;2.85;1.00;;;4.10;99.90;;;;;;5159419;27;20515;-62
2022/01/10 00:24:50;;;;;;;1.90;1.00;;;4.20;99.90;;;;;;5157507;27;20419;-62
2022/01/10 00:27:17;;;;;;;2.50;0.90;;;4.10;99.90;;;;;;5157311;27;20488;-62
2022/01/10 00:29:44;;;;;;;1.50;0.80;;;4.00;99.90;;;;;;5157254;27;20875;-62
2022/01/10 00:32:10;;;;;;;3.38;0.98;;;3.90;99.90;;;;;;5158010;27;20730;-62
2022/01/10 00:34:37;;;;;;;1.50;0.80;;;3.90;99.90;;;;;;5158633;27;20499;-62
2022/01/10 00:37:04;;;;;;;2.67;0.90;;;3.80;99.90;;;;;;5157811;27;20426;-62
2022/01/10 00:39:32;;;;;;;1.70;0.80;;;3.80;99.90;;;;;;5157725;27;20496;-62
2022/01/10 00:41:59;;;;;;;1.58;0.80;;;3.90;99.90;;;;;;5157980;27;20496;-62
2022/01/10 00:44:30;;;;;;;1.60;0.90;;;3.90;99.90;;;;;;5157594;27;20417;-62
2022/01/10 00:46:57;;;;;;;2.28;0.80;;;4.10;99.90;;;;;;5158676;27;20427;-62
2022/01/10 00:49:24;;;;;;;3.05;0.90;;;4.20;99.90;;;;;;5158506;27;20444;-62
2022/01/10 00:51:51;;;;;;;3.13;0.93;;;4.20;99.90;;;;;;5157416;27;20519;-61
2022/01/10 00:54:18;;;;;;;3.05;0.90;;;4.30;99.90;;;;;;5157141;27;20790;-62
2022/01/10 00:56:46;;;;;;;2.58;0.90;;;4.20;99.90;;;;;;5156654;27;20891;-62
2022/01/10 00:59:13;;;;;;;1.40;0.90;;;4.00;99.90;;;;;;5156738;27;20499;-62
2022/01/10 01:01:41;;;;;;;4.00;0.90;;;3.80;99.90;;;;;;5157709;27;20689;-62
2022/01/10 01:04:08;;;;;;;2.00;0.90;;;3.70;99.90;;;;;;5156475;27;20437;-62
2022/01/10 01:06:35;;;;;;;2.60;0.90;;;3.70;99.90;;;;;;5156755;27;20425;-62
2022/01/10 01:09:07;;;;;;;1.80;0.70;;;3.70;99.90;;;;;;5157321;27;20500;-62
2022/01/10 01:12:05;;;;;;;2.80;0.85;;;3.80;99.90;;;;;;5156746;27;20440;-62
2022/01/10 01:14:50;;;;;;;2.15;0.80;;;3.80;99.90;;;;;;5156433;27;20440;-62
2022/01/10 01:17:33;;;;;;;2.00;0.80;;;3.70;99.90;;;;;;5149080;27;20464;-62
2022/01/10 01:20:21;;;;;;;1.70;0.80;;;3.70;99.90;;;;;;5158031;27;20413;-62
2022/01/10 01:25:33;;;;;;;1.33;0.80;;;3.80;99.90;;;;;;5157929;27;20396;-62
2022/01/10 01:27:59;;;;;;;2.47;0.82;;;3.90;99.90;;;;;;5157954;27;20524;-62
2022/01/10 01:30:28;;;;;;;1.67;0.80;;;3.90;99.90;;;;;;5157014;27;20520;-62
2022/01/10 01:32:55;;;;;;;2.42;0.90;;;3.90;99.90;;;;;;5157117;27;20549;-62
2022/01/10 01:35:24;;;;;;;1.10;0.70;;;4.00;99.90;;;;;;5158113;27;20440;-62
2022/01/10 01:37:51;;;;;;;1.40;0.80;;;4.00;99.90;;;;;;5157953;27;20471;-62
2022/01/10 01:40:20;;;;;;;2.35;0.80;;;4.00;99.90;;;;;;5157717;27;20412;-62
2022/01/10 01:42:47;;;;;;;1.25;0.70;;;4.00;99.90;;;;;;5155677;27;20477;-62
2022/01/10 01:45:15;;;;;;;1.60;0.80;;;4.00;99.90;;;;;;5155146;27;20553;-62
2022/01/10 01:47:44;;;;;;;3.40;0.82;;;4.00;99.90;;;;;;5155190;27;20773;-62
2022/01/10 01:50:12;;;;;;;1.95;0.80;;;3.90;99.90;;;;;;5155505;27;20416;-62
2022/01/10 01:52:39;;;;;;;3.17;0.90;;;3.90;99.90;;;;;;5155812;27;20515;-62
2022/01/10 01:55:08;;;;;;;1.38;0.80;;;4.00;99.90;;;;;;5155895;27;20492;-62
2022/01/10 01:57:35;;;;;;;1.60;0.80;;;4.10;99.90;;;;;;5157060;27;20424;-62
2022/01/10 02:00:03;;;;;;;1.05;0.60;;;4.00;99.90;;;;;;5157226;27;20420;-62
2022/01/10 02:02:30;;;;;;;1.70;0.80;;;4.00;99.90;;;;;;5157919;27;20455;-61
2022/01/10 02:04:58;;;;;;;2.10;0.50;;;4.10;99.90;;;;;;5157330;27;20431;-61
2022/01/10 02:07:25;;;;;;;2.20;0.55;;;4.00;99.90;;;;;;5157629;27;20456;-61
2022/01/10 02:09:52;;;;;;;1.60;0.50;;;3.90;99.90;;;;;;5157083;27;20503;-61
2022/01/10 02:12:19;;;;;;;1.70;0.50;;;3.80;99.90;;;;;;5156262;27;20515;-61
2022/01/10 02:14:47;;;;;;;1.58;0.50;;;3.80;99.90;;;;;;5156097;27;20778;-61
2022/01/10 02:17:16;;;;;;;1.77;0.73;;;3.90;99.90;;;;;;5156422;27;20808;-61
2022/01/10 02:19:57;;;;;;;1.00;0.50;;;3.90;99.90;;;;;;5156183;27;20471;-61
2022/01/10 02:22:24;;;;;;;1.70;0.50;;;3.80;99.90;;;;;;5156628;27;20637;-61
2022/01/10 02:24:51;;;;;;;1.60;0.60;;;3.80;99.90;;;;;;5155798;27;20431;-61
2022/01/10 02:27:18;;;;;;;0.80;0.57;;;3.80;99.90;;;;;;5156548;27;20499;-61
2022/01/10 02:29:45;;;;;;;1.00;0.60;;;3.80;99.90;;;;;;5157158;27;20460;-63
2022/01/10 02:32:12;;;;;;;0.80;0.52;;;3.90;99.90;;;;;;5157203;27;20473;-61
2022/01/10 02:34:38;;;;;;;0.85;0.50;;;3.90;99.90;;;;;;5153202;27;20491;-61
2022/01/10 02:37:07;;;;;;;0.90;0.55;;;3.90;99.90;;;;;;5152124;27;20448;-61
2022/01/10 02:39:34;;;;;;;1.23;0.60;;;3.90;99.90;;;;;;5156628;27;20515;-61
2022/01/10 02:42:01;;;;;;;1.88;0.70;;;3.90;99.90;;;;;;5155969;27;20450;-61
2022/01/10 02:44:31;;;;;;;1.75;0.70;;;3.80;99.90;;;;;;5152895;27;20507;-61
2022/01/10 02:46:58;;;;;;;2.90;0.70;;;3.80;99.90;;;;;;5149939;27;20816;-61
2022/01/10 02:49:26;;;;;;;1.80;0.70;;;3.80;99.90;;;;;;5155335;27;20459;-61
2022/01/10 02:51:54;;;;;;;1.10;0.70;;;3.80;99.90;;;;;;5155380;27;20516;-61
2022/01/10 02:54:24;;;;;;;1.63;0.60;;;3.80;99.90;;;;;;5154567;27;20444;-61
2022/01/10 02:56:53;;;;;;;2.70;0.70;;;3.80;99.90;;;;;;5155828;27;20507;-61
2022/01/10 02:59:22;;;;;;;1.40;0.60;;;3.90;99.90;;;;;;5156229;27;20516;-61
2022/01/10 03:01:49;;;;;;;2.50;0.70;;;4.00;99.90;;;;;;5155108;27;20792;-61
2022/01/10 03:04:16;;;;;;;2.40;0.60;;;3.90;99.90;;;;;;5154515;27;20409;-60
2022/01/10 03:06:44;;;;;;;1.15;0.60;;;4.00;99.90;;;;;;5154780;27;20462;-63
2022/01/10 03:09:12;;;;;;;1.10;0.68;;;4.20;99.90;;;;;;5154668;27;20504;-61
2022/01/10 03:11:42;;;;;;;1.70;0.70;;;4.20;99.90;;;;;;5155372;27;20464;-62
2022/01/10 03:14:11;;;;;;;2.30;0.60;;;4.20;99.90;;;;;;5154990;27;20504;-62
2022/01/10 03:16:38;;;;;;;3.00;0.70;;;4.10;99.90;;;;;;5156008;27;20421;-62
2022/01/10 03:19:05;;;;;;;1.10;0.60;;;4.00;99.90;;;;;;5155460;27;20488;-62
2022/01/10 03:21:33;;;;;;;1.13;0.77;;;3.80;99.90;;;;;;5154656;27;20480;-62
2022/01/10 03:24:00;;;;;;;1.17;0.70;;;3.80;99.90;;;;;;5154277;27;20473;-62
2022/01/10 03:26:27;;;;;;;1.90;0.60;;;3.80;99.90;;;;;;5153687;27;20516;-61
2022/01/10 03:28:55;;;;;;;2.60;0.60;;;3.90;99.90;;;;;;5153483;27;20490;-62
2022/01/10 03:31:22;;;;;;;1.33;0.75;;;4.00;99.90;;;;;;5153997;27;20511;-61
2022/01/10 03:33:50;;;;;;;2.30;0.80;;;4.10;99.90;;;;;;5154609;27;20412;-62
2022/01/10 03:36:17;;;;;;;1.55;0.70;;;4.20;99.90;;;;;;5154511;27;20450;-60
2022/01/10 03:38:44;;;;;;;2.20;0.70;;;4.20;99.90;;;;;;5159308;27;20883;-61
2022/01/10 03:41:11;;;;;;;1.33;0.60;;;4.30;99.90;;;;;;5160333;27;20891;-62
2022/01/10 03:43:37;;;;;;;1.00;0.60;;;4.30;99.90;;;;;;5160319;27;20840;-61
2022/01/10 03:46:06;;;;;;;3.60;0.90;;;4.30;99.90;;;;;;5160429;27;20872;-61
2022/01/10 03:48:33;;;;;;;2.92;0.70;;;4.30;99.90;;;;;;5160060;27;20476;-61
2022/01/10 03:51:00;;;;;;;1.80;0.70;;;4.20;99.90;;;;;;5159814;27;20779;-62
2022/01/10 03:53:27;;;;;;;3.80;0.80;;;4.20;99.90;;;;;;5160172;27;20504;-61
2022/01/10 03:55:54;;;;;;;1.58;0.70;;;4.20;99.90;;;;;;5160401;27;20489;-63
2022/01/10 03:58:21;;;;;;;2.10;0.60;;;4.30;99.90;;;;;;5160147;27;20503;-61
2022/01/10 04:00:48;;;;;;;1.27;0.60;;;4.50;99.90;;;;;;5160225;27;20417;-62
2022/01/10 04:03:16;;;;;;;1.20;0.70;;;4.50;99.90;;;;;;5159821;27;20499;-61
2022/01/10 04:05:43;;;;;;;2.40;0.60;;;4.40;99.90;;;;;;5160044;27;20501;-62
2022/01/10 04:08:12;;;;;;;1.80;0.70;;;4.40;99.90;;;;;;5159676;27;20492;-62
2022/01/10 04:10:39;;;;;;;1.83;0.70;;;4.50;99.90;;;;;;5159757;27;20417;-62
2022/01/10 04:13:06;;;;;;;1.30;0.70;;;4.50;99.90;;;;;;5159976;27;20805;-62
2022/01/10 04:15:33;;;;;;;1.40;0.50;;;4.60;99.90;;;;;;5160163;27;20428;-62
2022/01/10 04:18:02;;;;;;;2.50;0.63;;;4.60;99.90;;;;;;5159615;27;20895;-61
2022/01/10 04:20:30;;;;;;;1.20;0.60;;;4.70;99.90;;;;;;5159679;27;20478;-61
2022/01/10 04:22:57;;;;;;;1.50;0.60;;;4.70;99.90;;;;;;5158439;27;20504;-61
2022/01/10 04:25:24;;;;;;;2.72;0.70;;;4.60;99.90;;;;;;5158731;27;20511;-61
2022/01/10 04:27:51;;;;;;;1.90;0.70;;;4.60;99.90;;;;;;5157719;27;20499;-62
2022/01/10 04:30:18;;;;;;;1.70;0.70;;;4.70;99.90;;;;;;5159691;27;20770;-61
2022/01/10 04:32:45;;;;;;;2.20;0.80;;;4.70;99.90;;;;;;5158558;27;20511;-61
2022/01/10 04:35:13;;;;;;;2.50;0.77;;;4.70;99.90;;;;;;5156824;27;20456;-61
2022/01/10 04:37:41;;;;;;;1.80;0.80;;;4.70;99.90;;;;;;5156783;27;20467;-61
2022/01/10 04:40:10;;;;;;;2.67;0.90;;;4.70;99.90;;;;;;5157381;27;20515;-62
2022/01/10 04:42:37;;;;;;;3.28;0.90;;;4.70;99.90;;;;;;5157943;27;20507;-62
2022/01/10 04:45:05;;;;;;;2.30;0.90;;;4.70;99.90;;;;;;5157701;27;20456;-61
2022/01/10 04:47:32;;;;;;;1.90;0.90;;;4.80;99.90;;;;;;5156839;27;20484;-61
2022/01/10 04:50:15;;;;;;;2.17;1.00;;;4.80;99.90;;;;;;5157372;27;20495;-62
2022/01/10 04:52:45;;;;;;;3.13;1.08;;;4.70;99.90;;;;;;5157446;27;20813;-62
2022/01/10 04:55:12;;;;;;;4.60;1.00;;;4.60;99.90;;;;;;5159127;27;20421;-62
2022/01/10 04:57:39;;;;;;;1.80;1.00;;;4.50;99.90;;;;;;5158595;27;20469;-62
2022/01/10 05:00:08;;;;;;;2.95;1.10;;;4.50;99.90;;;;;;5158862;27;20786;-62
2022/01/10 05:02:35;;;;;;;4.50;1.23;;;4.30;99.90;;;;;;5158985;27;20413;-62
2022/01/10 05:05:02;;;;;;;3.60;1.10;;;4.30;99.90;;;;;;5158379;27;20518;-62
2022/01/10 05:07:29;;;;;;;2.47;1.00;;;4.30;99.90;;;;;;5158552;27;20481;-62
2022/01/10 05:09:58;;;;;;;3.60;1.10;;;4.30;99.90;;;;;;5157395;27;20776;-62
2022/01/10 05:12:26;;;;;;;2.38;1.40;;;4.10;99.90;;;;;;5156911;27;20425;-62
2022/01/10 05:14:54;;;;;;;2.33;1.20;;;4.00;99.90;;;;;;5157549;27;20778;-62
2022/01/10 05:17:23;;;;;;;3.30;1.20;;;4.00;99.90;;;;;;5157901;27;20905;-62
2022/01/10 05:19:50;;;;;;;4.00;1.20;;;4.00;99.90;;;;;;5156560;27;20429;-62
2022/01/10 05:22:18;;;;;;;3.00;1.30;;;4.00;99.90;;;;;;5157952;27;20416;-62
2022/01/10 05:24:45;;;;;;;2.90;1.30;;;3.90;99.90;;;;;;5158215;27;20512;-62
2022/01/10 05:27:13;;;;;;;3.10;1.30;;;3.90;99.90;;;;;;5157358;27;20412;-62
2022/01/10 05:29:40;;;;;;;4.30;1.25;;;4.00;99.90;;;;;;5156905;27;20519;-62
2022/01/10 05:32:08;;;;;;;2.70;1.30;;;3.90;99.90;;;;;;5156105;27;20532;-62
2022/01/10 05:34:34;;;;;;;3.50;1.70;;;3.90;99.90;;;;;;5155452;27;20436;-62
2022/01/10 05:37:01;;;;;;;4.30;1.20;;;3.90;99.90;;;;;;5155737;27;20436;-63
2022/01/10 05:39:28;;;;;;;3.10;1.27;;;4.10;99.90;;;;;;5156438;27;20516;-62
2022/01/10 05:41:55;;;;;;;3.20;1.20;;;4.20;99.90;;;;;;5157093;27;20491;-62
2022/01/10 05:44:23;;;;;;;3.58;1.58;;;4.20;99.90;;;;;;5156135;27;20515;-62
2022/01/10 05:46:50;;;;;;;3.35;1.20;;;4.30;99.90;;;;;;5155571;27;20425;-62
2022/01/10 05:49:26;;;;;;;2.35;1.40;;;4.40;99.90;;;;;;5156286;27;20522;-62
2022/01/10 05:51:53;;;;;;;2.60;1.27;;;4.40;99.90;;;;;;5155411;27;20421;-62
2022/01/10 05:54:20;;;;;;;3.80;1.50;;;4.40;99.90;;;;;;5156413;27;20417;-61
2022/01/10 05:56:47;;;;;;;3.92;1.30;;;4.30;99.90;;;;;;5156309;27;20449;-61
2022/01/10 05:59:14;;;;;;;4.07;1.30;;;4.20;99.90;;;;;;5154146;27;21061;-61
2022/01/10 06:01:43;;;;;;;4.85;1.30;;;4.00;99.90;;;;;;5155419;27;20932;-62
2022/01/10 06:04:10;;;;;;;5.15;1.90;;;4.00;99.90;;;;;;5155343;27;20515;-62
2022/01/10 06:06:37;;;;;;;5.20;2.10;;;4.10;99.90;;;;;;5154178;27;20479;-63
2022/01/10 06:09:04;;;;;;;5.43;1.80;;;4.10;99.90;;;;;;5154335;27;20715;-62
2022/01/10 06:11:31;;;;;;;4.00;1.53;;;4.00;99.90;;;;;;5154672;27;20583;-62
2022/01/10 06:13:58;;;;;;;4.77;1.70;;;4.00;99.90;;;;;;5155488;27;20504;-61
2022/01/10 06:16:25;;;;;;;4.03;1.80;;;4.20;99.90;;;;;;5155844;27;20563;-62
2022/01/10 06:18:53;;;;;;;5.63;2.17;;;4.40;99.90;;;;;;5156734;27;20806;-62
2022/01/10 06:21:20;;;;;;;5.60;2.00;;;4.40;99.90;;;;;;5156729;27;20409;-62
2022/01/10 06:23:47;;;;;;;5.00;1.60;;;4.30;99.90;;;;;;5155751;27;20508;-62
2022/01/10 06:26:19;;;;;;;7.13;2.22;;;4.30;99.90;;;;;;5154176;27;20499;-62
2022/01/10 06:28:46;;;;;;;5.38;2.28;;;4.30;99.90;;;;;;5154944;27;20449;-62
2022/01/10 06:31:15;;;;;;;4.95;2.20;;;4.20;99.90;;;;;;5154401;27;20415;-62
2022/01/10 06:33:44;;;;;;;4.40;1.80;;;4.00;99.90;;;;;;5156169;27;20519;-61
2022/01/10 06:36:24;;;;;;;4.07;1.90;;;3.90;99.90;;;;;;5155098;27;20528;-57
2022/01/10 06:38:53;;;;;;;4.67;1.93;;;3.90;99.90;;;;;;5155398;27;20621;-58
2022/01/10 06:41:21;;;;;;;5.63;2.03;;;3.80;99.90;;;;;;5153914;27;20724;-62
2022/01/10 06:43:49;;;;;;;7.18;2.05;;;3.90;99.90;;;;;;5154847;27;20891;-62
2022/01/10 06:46:19;;;;;;;4.40;1.83;;;3.90;99.90;;;;;;5155420;27;20891;-62
2022/01/10 06:48:47;;;;;;;5.38;2.50;;;3.90;99.90;;;;;;5153886;27;20531;-62
2022/01/10 06:51:16;;;;;;;6.55;2.30;;;4.00;99.90;;;;;;5155068;27;20413;-62
2022/01/10 06:53:45;;;;;;;6.63;2.47;;;4.10;99.90;;;;;;5153780;27;20429;-62
2022/01/10 06:56:15;;;;;;;5.13;2.97;;;4.10;99.90;;;;;;5152927;27;20795;-62
2022/01/10 06:58:45;;;;;;;5.32;2.20;;;4.20;99.90;;;;;;5150025;27;20445;-62
2022/01/10 07:01:17;;;;;;;3.40;1.60;;;4.20;99.90;;;;;;5152403;27;20404;-62
2022/01/10 07:03:45;;;;;;;8.68;2.40;;;4.20;99.90;;;;;;5154150;27;20796;-62
2022/01/10 07:06:17;;;;;;;6.40;2.90;;;4.30;99.90;;;;;;5154695;27;20685;-62
2022/01/10 07:08:44;;;;;;;7.28;2.40;;;4.30;99.90;;;;;;5152766;27;20793;-62
2022/01/10 07:11:11;;;;;;;4.72;2.40;;;4.30;99.90;;;;;;5153224;27;20413;-62
2022/01/10 07:13:40;;;;;;;5.65;2.30;;;4.20;99.90;;;;;;5158811;27;20851;-62
2022/01/10 07:16:07;;;;;;;7.23;2.80;;;4.40;99.90;;;;;;5162899;27;20414;-62
2022/01/10 07:18:36;;;;;;;10.88;4.05;;;4.70;99.90;;;;;;5155747;27;20574;-62
2022/01/10 07:21:13;;;;;;;7.50;2.90;;;4.60;99.90;;;;;;5154476;27;20420;-60
2022/01/10 07:23:42;;;;;;;7.75;3.15;;;4.50;99.90;;;;;;5157475;27;20848;-60
2022/01/10 07:26:09;;;;;;;6.03;3.10;;;4.30;99.90;;;;;;5155398;27;20813;-60
2022/01/10 07:28:36;;;;;;;7.90;2.40;;;4.40;99.90;;;;;;5157659;27;20527;-59
2022/01/10 07:31:03;;;;;;;7.03;2.42;;;4.30;99.90;;;;;;5155839;27;20460;-61
2022/01/10 07:33:30;;;;;;;6.45;3.10;;;4.60;99.90;;;;;;5154774;27;20786;-60
2022/01/10 07:35:59;;;;;;;7.43;2.20;;;4.60;99.90;;;;;;5155291;27;20515;-59
2022/01/10 07:38:26;;;;;;;3.93;2.30;;;4.60;99.90;;;;;;5156451;27;20508;-59
2022/01/10 07:40:54;;;;;;;6.00;2.70;;;4.90;99.90;;;;;;5154945;27;20429;-59
2022/01/10 07:43:21;;;;;;;6.95;2.25;;;5.00;99.90;;;;;;5157375;27;20511;-59
2022/01/10 07:45:50;;;;;;;5.63;2.20;;;5.10;99.90;;;;;;5156153;27;20703;-60
2022/01/10 07:48:19;;;;;;;5.40;2.42;;;5.50;99.90;;;;;;5153955;27;20519;-60
2022/01/10 07:50:46;;;;;;;6.25;2.40;;;5.70;99.90;;;;;;5155918;27;20931;-60
2022/01/10 07:53:17;;;;;;;5.45;1.90;;;5.40;99.90;;;;;;5156645;27;20455;-60
2022/01/10 07:55:44;;;;;;;3.80;1.55;;;5.30;99.90;;;;;;5155672;27;20503;-60
2022/01/10 07:58:13;;;;;;;3.90;1.60;;;5.30;99.90;;;;;;5156212;27;20503;-61
2022/01/10 08:00:40;;;;;;;3.57;1.50;;;5.50;99.90;;;;;;5157775;27;20745;-60
2022/01/10 08:03:12;;;;;;;4.70;2.20;;;5.20;99.90;;;;;;5158075;27;20501;-60
2022/01/10 08:05:41;;;;;;;4.68;1.90;;;5.30;99.90;;;;;;5155606;27;20745;-60
2022/01/10 08:08:15;;;;;;;5.25;2.35;;;5.40;99.90;;;;;;5156788;27;20521;-60
2022/01/10 08:10:49;;;;;;;7.03;1.80;;;5.50;99.90;;;;;;5155653;27;20713;-61
2022/01/10 08:13:27;;;;;;;4.18;1.70;;;5.60;99.90;;;;;;5156834;27;20497;-60
2022/01/10 08:16:06;;;;;;;4.80;1.90;;;5.40;99.90;;;;;;5151735;27;20464;-60
2022/01/10 08:18:39;;;;;;;7.80;3.50;;;5.20;99.90;;;;;;5157646;27;20491;-61
2022/01/10 08:21:11;;;;;;;3.58;1.50;;;5.40;99.90;;;;;;5155239;27;20425;-60
2022/01/10 08:23:50;;;;;;;3.42;1.48;;;5.40;99.90;;;;;;5157151;27;20500;-60
2022/01/10 08:26:21;;;;;;;2.60;1.70;;;5.40;99.90;;;;;;5154748;27;20417;-60
2022/01/10 08:28:51;;;;;;;4.20;1.50;;;5.00;99.90;;;;;;5156285;27;20421;-60
2022/01/10 08:31:21;;;;;;;3.13;1.50;;;4.80;99.90;;;;;;5156192;27;20439;-60
2022/01/10 08:36:29;;;;;;;5.78;1.95;;;5.60;99.90;;;;;;5156371;27;20455;-60
2022/01/10 08:38:56;;;;;;;6.45;2.40;;;5.70;99.90;;;;;;5154833;27;20511;-60
2022/01/10 08:41:23;;;;;;;4.90;1.80;;;5.90;99.90;;;;;;5154278;27;20509;-60
2022/01/10 08:43:52;;;;;;;5.00;1.73;;;5.90;99.90;;;;;;5154841;27;20413;-59
2022/01/10 08:46:19;;;;;;;5.70;2.10;;;6.30;99.90;;;;;;5155646;27;20503;-60
2022/01/10 08:48:46;;;;;;;2.90;1.40;;;6.30;99.90;;;;;;5156346;27;20503;-60
2022/01/10 08:51:13;;;;;;;5.03;1.95;;;6.50;99.90;;;;;;5156356;27;20428;-60
2022/01/10 08:53:40;;;;;;;5.03;1.80;;;6.10;99.90;;;;;;5155415;27;20427;-60
2022/01/10 08:56:13;;;;;;;2.30;1.40;;;5.60;99.90;;;;;;5153580;27;20515;-60
2022/01/10 08:58:41;;;;;;;6.83;1.73;;;5.50;99.90;;;;;;5154135;27;20705;-61
2022/01/10 09:01:12;;;;;;;4.70;1.77;;;5.90;99.90;;;;;;5155159;27;20453;-61
2022/01/10 09:03:39;;;;;;;6.80;1.83;;;6.10;99.90;;;;;;5153651;27;20494;-61
2022/01/10 09:06:16;;;;;;;4.18;1.40;;;6.30;99.90;;;;;;5135785;27;20500;-61
2022/01/10 09:08:46;;;;;;;5.20;2.10;;;6.70;99.90;;;;;;5140489;27;20421;-61
2022/01/10 09:11:16;;;;;;;4.80;2.20;;;6.80;99.90;;;;;;5157166;27;20421;-61
2022/01/10 09:13:55;;;;;;;4.22;1.95;;;6.60;99.90;;;;;;5155392;27;20519;-61
2022/01/10 09:16:25;;;;;;;5.50;1.98;;;6.50;99.90;;;;;;5150879;27;20417;-59
2022/01/10 09:18:54;;;;;;;6.00;2.10;;;6.30;99.90;;;;;;5154391;27;20878;-59
2022/01/10 09:21:21;;;;;;;6.47;2.30;;;6.30;99.90;;;;;;5153262;27;20456;-59
2022/01/10 09:23:50;;;;;;;4.13;2.50;;;6.30;99.90;;;;;;5153875;27;20512;-59
2022/01/10 09:26:20;;;;;;;5.78;2.20;;;6.10;99.90;;;;;;5150769;27;20602;-58
2022/01/10 09:28:51;;;;;;;5.10;1.90;;;6.00;99.90;;;;;;5136088;27;20406;-57
2022/01/10 09:31:18;;;;;;;6.45;2.50;;;5.90;99.90;;;;;;5136837;27;20430;-58
2022/01/10 09:33:54;;;;;;;7.07;2.10;;;5.70;99.90;;;;;;5133319;27;20419;-58
2022/01/10 09:36:22;;;;;;;6.80;3.20;;;5.70;99.90;;;;;;5152184;27;20776;-59
2022/01/10 09:38:51;;;;;;;7.53;2.80;;;5.60;99.90;;;;;;5155853;27;20413;-57
2022/01/10 09:41:25;;;;;;;6.80;2.20;;;5.50;99.90;;;;;;5156899;27;20524;-57
2022/01/10 09:43:56;;;;;;;5.20;2.30;;;5.60;99.90;;;;;;5157131;27;20405;-56
2022/01/10 09:46:38;;;;;;;5.10;1.70;;;6.00;99.90;;;;;;5156637;27;20427;-57
2022/01/10 09:49:21;;;;;;;4.00;1.80;;;6.30;99.90;;;;;;5155280;27;20448;-57
2022/01/10 09:51:50;;;;;;;4.75;2.10;;;6.70;99.90;;;;;;5157448;27;20460;-56
2022/01/10 09:54:21;;;;;;;7.03;1.80;;;6.30;99.90;;;;;;5156458;27;20457;-56
2022/01/10 09:56:50;;;;;;;6.00;2.45;;;6.20;99.90;;;;;;5155710;27;20784;-58
2022/01/10 09:59:20;;;;;;;5.68;2.30;;;5.90;99.90;;;;;;5147612;27;20515;-59
2022/01/10 10:01:53;;;;;;;5.50;2.38;;;5.60;99.90;;;;;;5152995;27;20485;-55
2022/01/10 10:04:22;;;;;;;7.85;4.07;;;5.50;99.90;;;;;;5156554;27;20422;-54
2022/01/10 10:06:50;;;;;;;6.50;3.08;;;5.30;99.90;;;;;;5153152;27;20473;-55
2022/01/10 10:09:38;;;;;;;6.90;2.30;;;5.20;99.90;;;;;;5154685;27;20420;-52
2022/01/10 10:12:05;;;;;;;7.80;2.42;;;6.00;99.90;;;;;;5153971;27;20420;-55
2022/01/10 10:14:36;;;;;;;7.40;2.50;;;6.20;99.90;;;;;;5154805;27;20525;-53
2022/01/10 10:17:13;;;;;;;6.47;2.55;;;6.60;99.90;;;;;;5154486;27;20477;-56
2022/01/10 10:19:43;;;;;;;4.70;2.10;;;6.70;99.90;;;;;;5155491;27;20409;-55
2022/01/10 10:22:10;;;;;;;4.95;2.40;;;6.60;99.90;;;;;;5155841;27;20428;-55
2022/01/10 10:24:37;;;;;;;5.53;1.80;;;6.80;99.90;;;;;;5155456;27;20465;-55
2022/01/10 10:27:04;;;;;;;5.15;2.20;;;7.00;99.90;;;;;;5154656;27;20515;-54
2022/01/10 10:29:41;;;;;;;7.50;2.30;;;7.20;99.90;;;;;;5153866;27;20449;-54
2022/01/10 10:32:12;;;;;;;5.78;2.80;;;6.90;99.90;;;;;;5155801;27;20503;-56
2022/01/10 10:34:39;;;;;;;6.47;3.63;;;6.90;99.90;;;;;;5153080;27;20429;-54
2022/01/10 10:37:12;;;;;;;5.05;2.35;;;6.90;99.90;;;;;;5153868;27;20536;-53
2022/01/10 10:39:41;;;;;;;5.75;2.80;;;7.00;99.90;;;;;;5152914;27;20518;-53
2022/01/10 10:42:09;;;;;;;5.55;2.10;;;7.20;99.90;;;;;;5150744;27;20435;-54
2022/01/10 10:44:36;;;;;;;8.05;3.10;;;7.30;99.90;;;;;;5151341;27;20473;-55
2022/01/10 10:47:05;;;;;;;5.60;3.13;;;6.90;99.90;;;;;;5154631;27;20563;-53
2022/01/10 10:49:37;;;;;;;6.33;3.10;;;6.50;99.90;;;;;;5152777;27;20423;-54
2022/01/10 10:52:08;;;;;;;5.95;2.20;;;6.00;99.90;;;;;;5151822;27;20423;-57
2022/01/10 10:54:40;;;;;;;6.88;3.00;;;6.10;99.90;;;;;;5153960;27;20425;-55
2022/01/10 10:57:10;;;;;;;7.30;2.90;;;6.00;99.90;;;;;;5152606;27;20801;-52
2022/01/10 10:59:44;;;;;;;5.10;2.60;;;6.10;99.90;;;;;;5151601;27;20713;-55
2022/01/10 11:02:26;;;;;;;4.93;2.03;;;6.30;99.90;;;;;;5153044;27;20789;-55
2022/01/10 11:05:07;;;;;;;4.20;2.30;;;6.40;99.90;;;;;;5155527;27;20839;-53
2022/01/10 11:07:38;;;;;;;7.10;2.20;;;6.50;99.90;;;;;;5153700;27;20442;-52
2022/01/10 11:10:16;;;;;;;4.20;2.75;;;6.70;99.90;;;;;;5150436;27;20417;-55
2022/01/10 11:12:53;;;;;;;4.50;2.72;;;6.60;99.90;;;;;;5153493;27;20851;-54
2022/01/10 11:15:21;;;;;;;6.47;3.28;;;6.90;99.90;;;;;;5153222;27;20736;-49
2022/01/10 11:17:53;;;;;;;6.10;2.50;;;7.20;99.90;;;;;;5153883;27;20497;-54
2022/01/10 11:20:25;;;;;;;4.57;1.90;;;7.50;99.90;;;;;;5153611;27;20416;-52
2022/01/10 11:22:56;;;;;;;6.82;2.90;;;7.70;99.90;;;;;;5150359;27;20417;-53
2022/01/10 11:25:28;;;;;;;6.22;2.80;;;7.10;99.90;;;;;;5150291;27;20508;-51
2022/01/10 11:27:57;;;;;;;6.95;3.00;;;6.50;99.90;;;;;;5150152;27;20520;-52
2022/01/10 11:30:38;;;;;;;5.20;3.00;;;6.50;99.90;;;;;;5148575;27;20438;-53
2022/01/10 11:33:08;;;;;;;4.73;2.23;;;6.40;99.90;;;;;;5151844;27;20474;-52
2022/01/10 11:35:37;;;;;;;5.80;3.00;;;6.70;99.90;;;;;;5157752;27;20511;-51
2022/01/10 11:38:35;;;;;;;7.30;3.80;;;7.00;99.90;;;;;;5153116;27;20793;-51
2022/01/10 11:41:08;;;;;;;7.53;3.67;;;6.70;99.90;;;;;;5153867;27;20420;-49
2022/01/10 11:43:49;;;;;;;5.65;3.38;;;6.10;99.90;;;;;;5145085;27;20409;-53
2022/01/10 11:49:43;;;;;;;5.35;2.60;;;6.30;99.90;;;;;;5147903;27;21008;-54
2022/01/10 11:52:20;;;;;;;4.97;2.58;;;6.80;99.90;;;;;;5152912;27;20427;-55
2022/01/10 11:54:49;;;;;;;4.73;2.00;;;7.00;99.90;;;;;;5152143;27;20456;-54
2022/01/10 11:57:34;;;;;;;7.20;2.67;;;7.50;99.90;;;;;;5152276;27;20429;-53
2022/01/10 12:00:18;;;;;;;3.27;1.90;;;7.70;99.90;;;;;;5155995;27;20989;-53
2022/01/10 12:02:52;;;;;;;2.65;1.40;;;7.60;99.90;;;;;;5154076;27;20436;-52
2022/01/10 12:05:21;;;;;;;4.57;2.35;;;7.70;99.90;;;;;;5139225;27;20418;-55
2022/01/10 12:07:52;;;;;;;4.72;1.75;;;7.40;99.90;;;;;;5150855;27;20421;-52
2022/01/10 12:10:19;;;;;;;5.35;2.50;;;7.30;99.90;;;;;;5148696;27;20503;-55
2022/01/10 12:12:54;;;;;;;4.28;2.08;;;7.40;99.90;;;;;;5158091;27;20507;-55
2022/01/10 12:15:24;;;;;;;6.00;2.58;;;7.00;99.90;;;;;;5157746;27;20436;-55
2022/01/10 12:17:53;;;;;;;5.40;2.80;;;7.00;99.90;;;;;;5155845;27;20819;-51
2022/01/10 12:20:24;;;;;;;5.53;2.20;;;6.80;99.90;;;;;;5157203;27;20523;-55
2022/01/10 12:23:00;;;;;;;5.78;2.20;;;6.70;99.90;;;;;;5156823;27;20463;-52
2022/01/10 12:25:33;;;;;;;4.90;2.30;;;7.00;99.90;;;;;;5155072;27;20425;-51
2022/01/10 12:28:13;;;;;;;4.45;2.30;;;7.20;99.90;;;;;;5157085;27;20595;-55
2022/01/10 12:30:46;;;;;;;5.20;2.70;;;7.50;99.90;;;;;;5155685;27;20425;-54
2022/01/10 12:33:14;;;;;;;6.07;2.70;;;7.40;99.90;;;;;;5154383;27;20428;-53
2022/01/10 12:35:52;;;;;;;5.47;2.47;;;7.50;99.90;;;;;;5152982;27;20444;-58
2022/01/10 12:38:24;;;;;;;7.85;2.35;;;7.10;99.90;;;;;;5155474;27;20429;-56
2022/01/10 12:40:59;;;;;;;6.93;2.80;;;7.50;99.90;;;;;;5158108;27;20413;-52
2022/01/10 12:43:33;;;;;;;4.28;2.10;;;7.50;99.90;;;;;;5157532;27;20515;-55
2022/01/10 12:46:11;;;;;;;5.28;2.00;;;7.30;99.90;;;;;;5157027;27;20425;-56
2022/01/10 12:48:45;;;;;;;5.20;2.20;;;7.30;99.90;;;;;;5154792;27;20486;-56
2022/01/10 12:51:15;;;;;;;7.18;2.90;;;7.40;99.90;;;;;;5152902;27;20504;-53
2022/01/10 12:53:47;;;;;;;3.33;1.92;;;7.30;99.90;;;;;;5155174;27;20507;-53
2022/01/10 12:56:17;;;;;;;6.70;2.03;;;7.40;99.90;;;;;;5155922;27;20420;-55
2022/01/10 12:58:55;;;;;;;5.43;2.40;;;7.20;99.90;;;;;;5156848;27;20511;-51
2022/01/10 13:01:30;;;;;;;5.30;2.10;;;7.30;99.90;;;;;;5154357;27;20424;-50
2022/01/10 13:04:02;;;;;;;5.03;1.90;;;6.90;99.90;;;;;;5154243;27;20500;-53
2022/01/10 13:06:38;;;;;;;5.03;2.30;;;6.80;99.90;;;;;;5155526;27;20421;-55
2022/01/10 13:09:11;;;;;;;6.30;2.70;;;7.10;99.90;;;;;;5155962;27;20428;-56
2022/01/10 13:11:50;;;;;;;8.95;4.75;;;7.20;99.90;;;;;;5157007;27;20448;-56
2022/01/10 13:14:25;;;;;;;6.93;2.53;;;7.50;99.90;;;;;;5156380;27;20711;-60
2022/01/10 13:17:01;;;;;;;6.33;3.33;;;7.60;99.90;;;;;;5155729;27;20792;-61
2022/01/10 13:19:35;;;;;;;8.20;2.43;;;7.40;99.90;;;;;;5156072;27;20413;-60